sensor_id;sensor_type;location;lat;lon;timestamp;P1;durP1;ratioP1;P2;durP2;ratioP2
24813;SDS011;12904;50.088;11.414;2022-07-29T00:02:13;8.07;;;4.18;;
24813;SDS011;12904;50.088;11.414;2022-07-29T00:04:39;14.00;;;6.20;;
24813;SDS011;12904;50.088;11.414;2022-07-29T00:07:04;6.10;;;4.78;;
24813;SDS011;12904;50.088;11.414;2022-07-29T00:09:31;9.52;;;5.47;;
24813;SDS011;12904;50.088;11.414;2022-07-29T00:11:58;7.97;;;5.45;;
24813;SDS011;12904;50.088;11.414;2022-07-29T00:14:25;14.00;;;4.97;;
24813;SDS011;12904;50.088;11.414;2022-07-29T00:16:51;7.68;;;5.07;;
24813;SDS011;12904;50.088;11.414;2022-07-29T00:19:17;6.35;;;5.40;;
24813;SDS011;12904;50.088;11.414;2022-07-29T00:21:42;6.97;;;4.90;;
24813;SDS011;12904;50.088;11.414;2022-07-29T00:24:08;7.97;;;4.70;;
24813;SDS011;12904;50.088;11.414;2022-07-29T00:26:34;9.38;;;5.00;;
24813;SDS011;12904;50.088;11.414;2022-07-29T00:29:00;5.88;;;4.68;;
24813;SDS011;12904;50.088;11.414;2022-07-29T00:31:27;8.05;;;4.90;;
24813;SDS011;12904;50.088;11.414;2022-07-29T00:33:52;7.82;;;4.80;;
24813;SDS011;12904;50.088;11.414;2022-07-29T00:36:18;7.40;;;4.53;;
24813;SDS011;12904;50.088;11.414;2022-07-29T00:38:46;8.30;;;4.88;;
24813;SDS011;12904;50.088;11.414;2022-07-29T00:41:16;9.32;;;4.95;;
24813;SDS011;12904;50.088;11.414;2022-07-29T00:43:42;9.98;;;5.85;;
24813;SDS011;12904;50.088;11.414;2022-07-29T00:46:08;7.40;;;5.55;;
24813;SDS011;12904;50.088;11.414;2022-07-29T00:48:34;8.07;;;5.20;;
24813;SDS011;12904;50.088;11.414;2022-07-29T00:51:01;11.00;;;5.15;;
24813;SDS011;12904;50.088;11.414;2022-07-29T00:53:29;5.38;;;4.68;;
24813;SDS011;12904;50.088;11.414;2022-07-29T00:55:55;7.53;;;4.57;;
24813;SDS011;12904;50.088;11.414;2022-07-29T00:58:22;7.53;;;5.03;;
24813;SDS011;12904;50.088;11.414;2022-07-29T01:00:48;9.38;;;5.25;;
24813;SDS011;12904;50.088;11.414;2022-07-29T01:03:14;10.25;;;5.10;;
24813;SDS011;12904;50.088;11.414;2022-07-29T01:05:40;6.32;;;4.63;;
24813;SDS011;12904;50.088;11.414;2022-07-29T01:08:10;10.98;;;5.57;;
24813;SDS011;12904;50.088;11.414;2022-07-29T01:10:37;7.88;;;4.47;;
24813;SDS011;12904;50.088;11.414;2022-07-29T01:13:04;8.75;;;4.88;;
24813;SDS011;12904;50.088;11.414;2022-07-29T01:15:30;7.03;;;4.47;;
24813;SDS011;12904;50.088;11.414;2022-07-29T01:32:11;5.95;;;4.82;;
24813;SDS011;12904;50.088;11.414;2022-07-29T01:37:18;9.85;;;5.10;;
24813;SDS011;12904;50.088;11.414;2022-07-29T01:39:50;7.80;;;5.63;;
24813;SDS011;12904;50.088;11.414;2022-07-29T01:47:23;6.32;;;5.25;;
24813;SDS011;12904;50.088;11.414;2022-07-29T01:49:54;6.85;;;5.15;;
24813;SDS011;12904;50.088;11.414;2022-07-29T01:52:23;8.73;;;4.90;;
24813;SDS011;12904;50.088;11.414;2022-07-29T01:54:57;10.10;;;4.90;;
24813;SDS011;12904;50.088;11.414;2022-07-29T01:57:28;8.68;;;5.25;;
24813;SDS011;12904;50.088;11.414;2022-07-29T01:59:56;7.85;;;5.05;;
24813;SDS011;12904;50.088;11.414;2022-07-29T02:02:25;6.32;;;4.90;;
24813;SDS011;12904;50.088;11.414;2022-07-29T02:04:52;7.72;;;5.20;;
24813;SDS011;12904;50.088;11.414;2022-07-29T02:07:20;5.93;;;4.85;;
24813;SDS011;12904;50.088;11.414;2022-07-29T02:09:49;7.40;;;5.10;;
24813;SDS011;12904;50.088;11.414;2022-07-29T02:12:16;6.55;;;4.72;;
24813;SDS011;12904;50.088;11.414;2022-07-29T02:14:48;5.53;;;4.70;;
24813;SDS011;12904;50.088;11.414;2022-07-29T02:17:18;8.80;;;4.82;;
24813;SDS011;12904;50.088;11.414;2022-07-29T02:19:56;15.50;;;5.53;;
24813;SDS011;12904;50.088;11.414;2022-07-29T02:22:26;6.85;;;4.90;;
24813;SDS011;12904;50.088;11.414;2022-07-29T02:24:54;10.95;;;5.13;;
24813;SDS011;12904;50.088;11.414;2022-07-29T02:27:21;7.95;;;4.95;;
24813;SDS011;12904;50.088;11.414;2022-07-29T02:29:48;6.70;;;5.22;;
24813;SDS011;12904;50.088;11.414;2022-07-29T02:32:16;7.70;;;6.13;;
24813;SDS011;12904;50.088;11.414;2022-07-29T02:34:42;6.57;;;5.00;;
24813;SDS011;12904;50.088;11.414;2022-07-29T02:37:10;10.38;;;5.80;;
24813;SDS011;12904;50.088;11.414;2022-07-29T02:39:38;7.22;;;5.10;;
24813;SDS011;12904;50.088;11.414;2022-07-29T02:42:07;6.40;;;5.00;;
24813;SDS011;12904;50.088;11.414;2022-07-29T02:44:37;6.43;;;5.40;;
24813;SDS011;12904;50.088;11.414;2022-07-29T02:47:20;5.50;;;5.00;;
24813;SDS011;12904;50.088;11.414;2022-07-29T02:50:11;9.38;;;5.40;;
24813;SDS011;12904;50.088;11.414;2022-07-29T02:55:19;8.55;;;4.63;;
24813;SDS011;12904;50.088;11.414;2022-07-29T02:57:52;7.53;;;5.10;;
24813;SDS011;12904;50.088;11.414;2022-07-29T03:00:28;9.13;;;5.80;;
24813;SDS011;12904;50.088;11.414;2022-07-29T03:02:58;8.73;;;5.45;;
24813;SDS011;12904;50.088;11.414;2022-07-29T03:05:26;5.57;;;4.95;;
24813;SDS011;12904;50.088;11.414;2022-07-29T03:07:54;6.40;;;5.80;;
24813;SDS011;12904;50.088;11.414;2022-07-29T03:10:23;6.25;;;5.63;;
24813;SDS011;12904;50.088;11.414;2022-07-29T03:12:51;8.02;;;5.03;;
24813;SDS011;12904;50.088;11.414;2022-07-29T03:15:17;6.63;;;5.97;;
24813;SDS011;12904;50.088;11.414;2022-07-29T03:17:44;8.65;;;4.97;;
24813;SDS011;12904;50.088;11.414;2022-07-29T03:20:11;7.75;;;5.28;;
24813;SDS011;12904;50.088;11.414;2022-07-29T03:22:41;5.50;;;4.93;;
24813;SDS011;12904;50.088;11.414;2022-07-29T03:25:15;6.97;;;5.45;;
24813;SDS011;12904;50.088;11.414;2022-07-29T03:27:42;8.47;;;5.57;;
24813;SDS011;12904;50.088;11.414;2022-07-29T03:30:08;7.22;;;5.72;;
24813;SDS011;12904;50.088;11.414;2022-07-29T03:32:35;5.88;;;5.15;;
24813;SDS011;12904;50.088;11.414;2022-07-29T03:35:02;5.45;;;4.72;;
24813;SDS011;12904;50.088;11.414;2022-07-29T03:37:28;6.88;;;5.70;;
24813;SDS011;12904;50.088;11.414;2022-07-29T03:39:55;7.55;;;5.40;;
24813;SDS011;12904;50.088;11.414;2022-07-29T03:42:23;7.32;;;4.78;;
24813;SDS011;12904;50.088;11.414;2022-07-29T03:44:53;8.20;;;5.70;;
24813;SDS011;12904;50.088;11.414;2022-07-29T03:47:21;7.00;;;5.38;;
24813;SDS011;12904;50.088;11.414;2022-07-29T03:49:51;6.43;;;5.15;;
24813;SDS011;12904;50.088;11.414;2022-07-29T03:52:19;6.22;;;5.00;;
24813;SDS011;12904;50.088;11.414;2022-07-29T03:54:46;8.60;;;5.35;;
24813;SDS011;12904;50.088;11.414;2022-07-29T03:57:12;6.05;;;5.07;;
24813;SDS011;12904;50.088;11.414;2022-07-29T03:59:39;9.45;;;5.40;;
24813;SDS011;12904;50.088;11.414;2022-07-29T04:02:05;8.43;;;5.47;;
24813;SDS011;12904;50.088;11.414;2022-07-29T04:04:35;6.55;;;4.95;;
24813;SDS011;12904;50.088;11.414;2022-07-29T04:07:02;7.22;;;4.28;;
24813;SDS011;12904;50.088;11.414;2022-07-29T04:09:28;6.43;;;4.93;;
24813;SDS011;12904;50.088;11.414;2022-07-29T04:11:55;5.53;;;5.03;;
24813;SDS011;12904;50.088;11.414;2022-07-29T04:14:20;10.73;;;5.40;;
24813;SDS011;12904;50.088;11.414;2022-07-29T04:16:46;6.60;;;5.13;;
24813;SDS011;12904;50.088;11.414;2022-07-29T04:19:12;6.00;;;4.93;;
24813;SDS011;12904;50.088;11.414;2022-07-29T04:21:41;10.35;;;5.65;;
24813;SDS011;12904;50.088;11.414;2022-07-29T04:24:07;7.55;;;5.35;;
24813;SDS011;12904;50.088;11.414;2022-07-29T04:26:33;7.15;;;5.55;;
24813;SDS011;12904;50.088;11.414;2022-07-29T04:28:59;8.73;;;5.10;;
24813;SDS011;12904;50.088;11.414;2022-07-29T04:31:25;6.65;;;5.40;;
24813;SDS011;12904;50.088;11.414;2022-07-29T04:33:51;6.50;;;5.40;;
24813;SDS011;12904;50.088;11.414;2022-07-29T04:36:17;8.10;;;5.40;;
24813;SDS011;12904;50.088;11.414;2022-07-29T04:38:42;5.18;;;4.57;;
24813;SDS011;12904;50.088;11.414;2022-07-29T04:41:08;7.97;;;5.65;;
24813;SDS011;12904;50.088;11.414;2022-07-29T04:43:34;6.05;;;4.78;;
24813;SDS011;12904;50.088;11.414;2022-07-29T04:46:00;10.07;;;4.72;;
24813;SDS011;12904;50.088;11.414;2022-07-29T04:48:27;6.38;;;3.92;;
24813;SDS011;12904;50.088;11.414;2022-07-29T04:50:53;4.70;;;3.95;;
24813;SDS011;12904;50.088;11.414;2022-07-29T04:53:18;5.30;;;4.35;;
24813;SDS011;12904;50.088;11.414;2022-07-29T04:55:44;12.15;;;4.75;;
24813;SDS011;12904;50.088;11.414;2022-07-29T04:58:10;6.82;;;4.75;;
24813;SDS011;12904;50.088;11.414;2022-07-29T05:00:36;7.80;;;4.03;;
24813;SDS011;12904;50.088;11.414;2022-07-29T05:03:02;7.07;;;5.00;;
24813;SDS011;12904;50.088;11.414;2022-07-29T05:05:28;6.47;;;5.03;;
24813;SDS011;12904;50.088;11.414;2022-07-29T05:07:54;8.25;;;4.93;;
24813;SDS011;12904;50.088;11.414;2022-07-29T05:10:20;6.32;;;5.07;;
24813;SDS011;12904;50.088;11.414;2022-07-29T05:12:46;7.32;;;4.72;;
24813;SDS011;12904;50.088;11.414;2022-07-29T05:15:12;7.40;;;5.47;;
24813;SDS011;12904;50.088;11.414;2022-07-29T05:17:37;5.47;;;4.65;;
24813;SDS011;12904;50.088;11.414;2022-07-29T05:20:03;6.97;;;4.97;;
24813;SDS011;12904;50.088;11.414;2022-07-29T05:22:30;14.48;;;5.20;;
24813;SDS011;12904;50.088;11.414;2022-07-29T05:24:55;13.10;;;5.75;;
24813;SDS011;12904;50.088;11.414;2022-07-29T05:27:21;5.18;;;4.35;;
24813;SDS011;12904;50.088;11.414;2022-07-29T05:29:47;6.35;;;4.65;;
24813;SDS011;12904;50.088;11.414;2022-07-29T05:32:12;5.88;;;4.70;;
24813;SDS011;12904;50.088;11.414;2022-07-29T05:34:38;5.65;;;3.72;;
24813;SDS011;12904;50.088;11.414;2022-07-29T05:37:05;4.57;;;3.83;;
24813;SDS011;12904;50.088;11.414;2022-07-29T05:39:31;5.53;;;4.65;;
24813;SDS011;12904;50.088;11.414;2022-07-29T05:41:56;4.63;;;4.13;;
24813;SDS011;12904;50.088;11.414;2022-07-29T05:44:25;7.13;;;3.60;;
24813;SDS011;12904;50.088;11.414;2022-07-29T05:46:51;6.80;;;3.72;;
24813;SDS011;12904;50.088;11.414;2022-07-29T05:49:16;5.53;;;4.35;;
24813;SDS011;12904;50.088;11.414;2022-07-29T05:51:42;6.13;;;4.32;;
24813;SDS011;12904;50.088;11.414;2022-07-29T05:54:09;10.65;;;4.32;;
24813;SDS011;12904;50.088;11.414;2022-07-29T05:56:35;8.32;;;3.75;;
24813;SDS011;12904;50.088;11.414;2022-07-29T05:59:03;8.82;;;3.45;;
24813;SDS011;12904;50.088;11.414;2022-07-29T06:01:28;5.38;;;3.55;;
24813;SDS011;12904;50.088;11.414;2022-07-29T06:03:54;3.88;;;3.35;;
24813;SDS011;12904;50.088;11.414;2022-07-29T06:06:20;5.15;;;3.10;;
24813;SDS011;12904;50.088;11.414;2022-07-29T06:08:45;9.02;;;3.45;;
24813;SDS011;12904;50.088;11.414;2022-07-29T06:11:11;6.35;;;3.35;;
24813;SDS011;12904;50.088;11.414;2022-07-29T06:13:37;4.10;;;3.03;;
24813;SDS011;12904;50.088;11.414;2022-07-29T06:16:02;5.43;;;2.95;;
24813;SDS011;12904;50.088;11.414;2022-07-29T06:18:29;5.25;;;2.70;;
24813;SDS011;12904;50.088;11.414;2022-07-29T06:20:54;3.40;;;2.33;;
24813;SDS011;12904;50.088;11.414;2022-07-29T06:23:20;6.15;;;2.47;;
24813;SDS011;12904;50.088;11.414;2022-07-29T06:25:46;14.27;;;2.53;;
24813;SDS011;12904;50.088;11.414;2022-07-29T06:28:12;10.43;;;2.65;;
24813;SDS011;12904;50.088;11.414;2022-07-29T06:30:38;5.40;;;2.10;;
24813;SDS011;12904;50.088;11.414;2022-07-29T06:33:04;6.22;;;2.00;;
24813;SDS011;12904;50.088;11.414;2022-07-29T06:35:32;2.95;;;1.80;;
24813;SDS011;12904;50.088;11.414;2022-07-29T06:38:00;11.98;;;2.25;;
24813;SDS011;12904;50.088;11.414;2022-07-29T06:40:26;5.45;;;2.10;;
24813;SDS011;12904;50.088;11.414;2022-07-29T06:43:24;6.22;;;2.20;;
24813;SDS011;12904;50.088;11.414;2022-07-29T06:45:49;3.05;;;1.67;;
24813;SDS011;12904;50.088;11.414;2022-07-29T06:48:15;8.02;;;1.80;;
24813;SDS011;12904;50.088;11.414;2022-07-29T06:50:40;3.58;;;1.67;;
24813;SDS011;12904;50.088;11.414;2022-07-29T06:53:06;6.43;;;1.38;;
24813;SDS011;12904;50.088;11.414;2022-07-29T06:55:32;3.67;;;1.33;;
24813;SDS011;12904;50.088;11.414;2022-07-29T06:57:57;3.88;;;1.70;;
24813;SDS011;12904;50.088;11.414;2022-07-29T07:00:23;4.90;;;1.55;;
24813;SDS011;12904;50.088;11.414;2022-07-29T07:02:49;5.22;;;1.67;;
24813;SDS011;12904;50.088;11.414;2022-07-29T07:05:14;6.15;;;1.77;;
24813;SDS011;12904;50.088;11.414;2022-07-29T07:07:40;3.92;;;1.70;;
24813;SDS011;12904;50.088;11.414;2022-07-29T07:10:06;2.67;;;1.40;;
24813;SDS011;12904;50.088;11.414;2022-07-29T07:12:32;3.88;;;1.92;;
24813;SDS011;12904;50.088;11.414;2022-07-29T07:14:57;3.25;;;1.63;;
24813;SDS011;12904;50.088;11.414;2022-07-29T07:17:23;2.75;;;1.17;;
24813;SDS011;12904;50.088;11.414;2022-07-29T07:19:49;5.28;;;1.50;;
24813;SDS011;12904;50.088;11.414;2022-07-29T07:22:14;3.15;;;1.45;;
24813;SDS011;12904;50.088;11.414;2022-07-29T07:24:40;4.80;;;1.40;;
24813;SDS011;12904;50.088;11.414;2022-07-29T07:27:06;2.80;;;1.48;;
24813;SDS011;12904;50.088;11.414;2022-07-29T07:29:31;3.47;;;1.30;;
24813;SDS011;12904;50.088;11.414;2022-07-29T07:31:57;2.60;;;1.30;;
24813;SDS011;12904;50.088;11.414;2022-07-29T07:34:23;5.40;;;1.65;;
24813;SDS011;12904;50.088;11.414;2022-07-29T07:36:51;3.63;;;1.10;;
24813;SDS011;12904;50.088;11.414;2022-07-29T07:39:17;4.70;;;1.30;;
24813;SDS011;12904;50.088;11.414;2022-07-29T07:41:43;2.28;;;1.20;;
24813;SDS011;12904;50.088;11.414;2022-07-29T07:44:08;2.83;;;1.55;;
24813;SDS011;12904;50.088;11.414;2022-07-29T07:46:34;3.42;;;1.20;;
24813;SDS011;12904;50.088;11.414;2022-07-29T07:49:00;2.08;;;1.20;;
24813;SDS011;12904;50.088;11.414;2022-07-29T07:51:25;3.92;;;1.10;;
24813;SDS011;12904;50.088;11.414;2022-07-29T07:53:51;3.33;;;1.00;;
24813;SDS011;12904;50.088;11.414;2022-07-29T07:56:17;3.13;;;1.20;;
24813;SDS011;12904;50.088;11.414;2022-07-29T07:58:43;1.45;;;1.10;;
24813;SDS011;12904;50.088;11.414;2022-07-29T08:01:09;2.15;;;1.20;;
24813;SDS011;12904;50.088;11.414;2022-07-29T08:03:34;3.17;;;1.17;;
24813;SDS011;12904;50.088;11.414;2022-07-29T08:06:00;3.30;;;1.20;;
24813;SDS011;12904;50.088;11.414;2022-07-29T08:08:27;3.05;;;1.30;;
24813;SDS011;12904;50.088;11.414;2022-07-29T08:10:52;3.80;;;1.10;;
24813;SDS011;12904;50.088;11.414;2022-07-29T08:13:19;3.40;;;1.10;;
24813;SDS011;12904;50.088;11.414;2022-07-29T08:15:46;2.05;;;1.00;;
24813;SDS011;12904;50.088;11.414;2022-07-29T08:18:12;4.43;;;1.10;;
24813;SDS011;12904;50.088;11.414;2022-07-29T08:20:38;3.50;;;1.27;;
24813;SDS011;12904;50.088;11.414;2022-07-29T08:23:05;3.20;;;1.30;;
24813;SDS011;12904;50.088;11.414;2022-07-29T08:25:33;1.88;;;1.35;;
24813;SDS011;12904;50.088;11.414;2022-07-29T08:28:03;3.28;;;1.30;;
24813;SDS011;12904;50.088;11.414;2022-07-29T08:30:30;2.08;;;1.20;;
24813;SDS011;12904;50.088;11.414;2022-07-29T08:32:57;4.18;;;1.38;;
24813;SDS011;12904;50.088;11.414;2022-07-29T08:35:23;2.13;;;1.13;;
24813;SDS011;12904;50.088;11.414;2022-07-29T08:37:49;10.98;;;1.45;;
24813;SDS011;12904;50.088;11.414;2022-07-29T08:40:16;4.45;;;1.45;;
24813;SDS011;12904;50.088;11.414;2022-07-29T08:42:42;2.08;;;1.35;;
24813;SDS011;12904;50.088;11.414;2022-07-29T08:45:08;1.40;;;1.15;;
24813;SDS011;12904;50.088;11.414;2022-07-29T08:47:34;2.45;;;1.33;;
24813;SDS011;12904;50.088;11.414;2022-07-29T08:52:30;4.03;;;1.60;;
24813;SDS011;12904;50.088;11.414;2022-07-29T08:55:00;2.03;;;1.40;;
24813;SDS011;12904;50.088;11.414;2022-07-29T08:57:27;3.85;;;1.60;;
24813;SDS011;12904;50.088;11.414;2022-07-29T08:59:53;2.97;;;1.25;;
24813;SDS011;12904;50.088;11.414;2022-07-29T09:02:20;8.43;;;2.05;;
24813;SDS011;12904;50.088;11.414;2022-07-29T09:04:47;2.75;;;1.83;;
24813;SDS011;12904;50.088;11.414;2022-07-29T09:07:17;1.98;;;1.40;;
24813;SDS011;12904;50.088;11.414;2022-07-29T09:09:43;3.38;;;1.50;;
24813;SDS011;12904;50.088;11.414;2022-07-29T09:12:10;2.00;;;1.60;;
24813;SDS011;12904;50.088;11.414;2022-07-29T09:14:37;4.45;;;2.08;;
24813;SDS011;12904;50.088;11.414;2022-07-29T09:17:03;4.03;;;1.80;;
24813;SDS011;12904;50.088;11.414;2022-07-29T09:19:30;3.30;;;1.58;;
24813;SDS011;12904;50.088;11.414;2022-07-29T09:21:59;2.10;;;1.70;;
24813;SDS011;12904;50.088;11.414;2022-07-29T09:24:41;7.15;;;1.88;;
24813;SDS011;12904;50.088;11.414;2022-07-29T09:32:53;4.15;;;1.90;;
24813;SDS011;12904;50.088;11.414;2022-07-29T09:35:24;3.65;;;1.75;;
24813;SDS011;12904;50.088;11.414;2022-07-29T09:37:50;9.05;;;1.80;;
24813;SDS011;12904;50.088;11.414;2022-07-29T09:42:44;2.25;;;1.40;;
24813;SDS011;12904;50.088;11.414;2022-07-29T09:45:10;3.15;;;2.00;;
24813;SDS011;12904;50.088;11.414;2022-07-29T09:47:45;3.28;;;1.88;;
24813;SDS011;12904;50.088;11.414;2022-07-29T09:50:13;3.22;;;1.65;;
24813;SDS011;12904;50.088;11.414;2022-07-29T09:52:47;3.05;;;1.83;;
24813;SDS011;12904;50.088;11.414;2022-07-29T09:55:14;6.25;;;1.65;;
24813;SDS011;12904;50.088;11.414;2022-07-29T09:57:40;4.50;;;1.67;;
24813;SDS011;12904;50.088;11.414;2022-07-29T10:00:10;3.88;;;2.13;;
24813;SDS011;12904;50.088;11.414;2022-07-29T10:02:39;2.05;;;1.80;;
24813;SDS011;12904;50.088;11.414;2022-07-29T10:05:06;3.65;;;1.80;;
24813;SDS011;12904;50.088;11.414;2022-07-29T10:07:57;2.72;;;1.77;;
24813;SDS011;12904;50.088;11.414;2022-07-29T10:10:26;2.17;;;1.70;;
24813;SDS011;12904;50.088;11.414;2022-07-29T10:13:00;2.33;;;2.15;;
24813;SDS011;12904;50.088;11.414;2022-07-29T10:15:31;4.65;;;1.75;;
24813;SDS011;12904;50.088;11.414;2022-07-29T10:18:02;3.28;;;1.63;;
24813;SDS011;12904;50.088;11.414;2022-07-29T10:20:28;2.97;;;1.80;;
24813;SDS011;12904;50.088;11.414;2022-07-29T10:22:54;1.90;;;1.60;;
24813;SDS011;12904;50.088;11.414;2022-07-29T10:25:20;4.60;;;1.73;;
24813;SDS011;12904;50.088;11.414;2022-07-29T10:27:47;2.53;;;2.08;;
24813;SDS011;12904;50.088;11.414;2022-07-29T10:30:16;2.83;;;1.40;;
24813;SDS011;12904;50.088;11.414;2022-07-29T10:36:27;5.88;;;1.65;;
24813;SDS011;12904;50.088;11.414;2022-07-29T10:39:45;2.55;;;1.90;;
24813;SDS011;12904;50.088;11.414;2022-07-29T10:42:57;6.93;;;1.60;;
24813;SDS011;12904;50.088;11.414;2022-07-29T10:45:39;1.75;;;1.63;;
24813;SDS011;12904;50.088;11.414;2022-07-29T10:48:05;1.52;;;1.40;;
24813;SDS011;12904;50.088;11.414;2022-07-29T10:53:20;2.60;;;1.92;;
24813;SDS011;12904;50.088;11.414;2022-07-29T10:55:47;2.25;;;1.85;;
24813;SDS011;12904;50.088;11.414;2022-07-29T10:58:18;2.78;;;1.90;;
24813;SDS011;12904;50.088;11.414;2022-07-29T11:00:47;3.72;;;2.08;;
24813;SDS011;12904;50.088;11.414;2022-07-29T11:04:02;5.85;;;2.42;;
24813;SDS011;12904;50.088;11.414;2022-07-29T11:06:06;3.13;;;2.00;;
24813;SDS011;12904;50.088;11.414;2022-07-29T11:08:32;3.47;;;1.80;;
24813;SDS011;12904;50.088;11.414;2022-07-29T11:13:52;3.40;;;1.85;;
24813;SDS011;12904;50.088;11.414;2022-07-29T11:16:20;3.92;;;2.08;;
24813;SDS011;12904;50.088;11.414;2022-07-29T11:21:40;4.50;;;1.80;;
24813;SDS011;12904;50.088;11.414;2022-07-29T11:24:13;4.28;;;1.75;;
24813;SDS011;12904;50.088;11.414;2022-07-29T11:26:41;3.03;;;2.28;;
24813;SDS011;12904;50.088;11.414;2022-07-29T11:31:43;9.10;;;3.90;;
24813;SDS011;12904;50.088;11.414;2022-07-29T11:34:21;8.90;;;3.60;;
24813;SDS011;12904;50.088;11.414;2022-07-29T11:47:37;6.78;;;4.72;;
24813;SDS011;12904;50.088;11.414;2022-07-29T11:50:06;6.82;;;4.65;;
24813;SDS011;12904;50.088;11.414;2022-07-29T11:52:38;4.35;;;4.00;;
24813;SDS011;12904;50.088;11.414;2022-07-29T11:55:08;4.68;;;3.97;;
24813;SDS011;12904;50.088;11.414;2022-07-29T11:57:37;6.32;;;3.85;;
24813;SDS011;12904;50.088;11.414;2022-07-29T12:00:11;5.03;;;3.28;;
24813;SDS011;12904;50.088;11.414;2022-07-29T12:02:45;3.70;;;3.40;;
24813;SDS011;12904;50.088;11.414;2022-07-29T12:05:11;4.60;;;3.53;;
24813;SDS011;12904;50.088;11.414;2022-07-29T12:07:37;4.40;;;3.95;;
24813;SDS011;12904;50.088;11.414;2022-07-29T12:10:04;7.28;;;4.05;;
24813;SDS011;12904;50.088;11.414;2022-07-29T12:12:30;7.57;;;3.55;;
24813;SDS011;12904;50.088;11.414;2022-07-29T12:14:56;5.65;;;4.05;;
24813;SDS011;12904;50.088;11.414;2022-07-29T12:17:29;5.63;;;4.03;;
24813;SDS011;12904;50.088;11.414;2022-07-29T12:19:59;4.45;;;4.05;;
24813;SDS011;12904;50.088;11.414;2022-07-29T12:22:31;8.30;;;4.40;;
24813;SDS011;12904;50.088;11.414;2022-07-29T12:25:02;5.90;;;4.10;;
24813;SDS011;12904;50.088;11.414;2022-07-29T12:27:31;4.97;;;4.43;;
24813;SDS011;12904;50.088;11.414;2022-07-29T12:29:58;9.15;;;3.83;;
24813;SDS011;12904;50.088;11.414;2022-07-29T12:32:38;4.13;;;3.63;;
24813;SDS011;12904;50.088;11.414;2022-07-29T12:35:11;5.88;;;3.95;;
24813;SDS011;12904;50.088;11.414;2022-07-29T12:37:39;4.53;;;3.38;;
24813;SDS011;12904;50.088;11.414;2022-07-29T12:40:06;5.07;;;3.13;;
24813;SDS011;12904;50.088;11.414;2022-07-29T12:42:34;5.40;;;3.08;;
24813;SDS011;12904;50.088;11.414;2022-07-29T12:45:01;5.63;;;2.90;;
24813;SDS011;12904;50.088;11.414;2022-07-29T12:47:28;3.95;;;3.65;;
24813;SDS011;12904;50.088;11.414;2022-07-29T12:50:11;6.68;;;3.30;;
24813;SDS011;12904;50.088;11.414;2022-07-29T12:52:40;3.88;;;2.92;;
24813;SDS011;12904;50.088;11.414;2022-07-29T12:55:06;2.88;;;2.58;;
24813;SDS011;12904;50.088;11.414;2022-07-29T12:57:32;3.88;;;2.80;;
24813;SDS011;12904;50.088;11.414;2022-07-29T13:00:11;4.55;;;2.60;;
24813;SDS011;12904;50.088;11.414;2022-07-29T13:02:39;2.83;;;2.33;;
24813;SDS011;12904;50.088;11.414;2022-07-29T13:05:06;3.40;;;2.10;;
24813;SDS011;12904;50.088;11.414;2022-07-29T13:07:33;3.75;;;2.30;;
24813;SDS011;12904;50.088;11.414;2022-07-29T13:10:11;1.83;;;1.67;;
24813;SDS011;12904;50.088;11.414;2022-07-29T13:13:26;1.98;;;1.40;;
24813;SDS011;12904;50.088;11.414;2022-07-29T13:15:28;2.60;;;1.70;;
24813;SDS011;12904;50.088;11.414;2022-07-29T13:17:54;2.00;;;1.40;;
24813;SDS011;12904;50.088;11.414;2022-07-29T13:20:23;2.45;;;1.75;;
24813;SDS011;12904;50.088;11.414;2022-07-29T13:22:50;2.05;;;1.65;;
24813;SDS011;12904;50.088;11.414;2022-07-29T13:25:23;3.28;;;1.50;;
24813;SDS011;12904;50.088;11.414;2022-07-29T13:27:50;3.88;;;1.65;;
24813;SDS011;12904;50.088;11.414;2022-07-29T13:30:16;2.60;;;2.25;;
24813;SDS011;12904;50.088;11.414;2022-07-29T13:32:42;1.90;;;1.58;;
24813;SDS011;12904;50.088;11.414;2022-07-29T13:35:07;1.63;;;1.50;;
24813;SDS011;12904;50.088;11.414;2022-07-29T13:37:34;5.10;;;1.80;;
24813;SDS011;12904;50.088;11.414;2022-07-29T13:40:03;3.72;;;2.30;;
24813;SDS011;12904;50.088;11.414;2022-07-29T13:42:30;4.32;;;2.33;;
24813;SDS011;12904;50.088;11.414;2022-07-29T13:44:56;3.35;;;2.20;;
24813;SDS011;12904;50.088;11.414;2022-07-29T13:47:22;2.42;;;1.98;;
24813;SDS011;12904;50.088;11.414;2022-07-29T13:49:48;2.20;;;1.98;;
24813;SDS011;12904;50.088;11.414;2022-07-29T13:52:15;2.00;;;1.80;;
24813;SDS011;12904;50.088;11.414;2022-07-29T13:54:41;2.53;;;2.05;;
24813;SDS011;12904;50.088;11.414;2022-07-29T13:57:08;2.88;;;2.05;;
24813;SDS011;12904;50.088;11.414;2022-07-29T13:59:35;2.05;;;1.83;;
24813;SDS011;12904;50.088;11.414;2022-07-29T14:02:01;3.25;;;1.85;;
24813;SDS011;12904;50.088;11.414;2022-07-29T14:04:27;4.22;;;1.95;;
24813;SDS011;12904;50.088;11.414;2022-07-29T14:06:52;3.15;;;2.00;;
24813;SDS011;12904;50.088;11.414;2022-07-29T14:09:18;2.55;;;2.28;;
24813;SDS011;12904;50.088;11.414;2022-07-29T14:11:44;2.83;;;2.58;;
24813;SDS011;12904;50.088;11.414;2022-07-29T14:14:10;2.05;;;1.83;;
24813;SDS011;12904;50.088;11.414;2022-07-29T14:16:36;2.38;;;1.80;;
24813;SDS011;12904;50.088;11.414;2022-07-29T14:19:02;3.38;;;2.25;;
24813;SDS011;12904;50.088;11.414;2022-07-29T14:21:28;2.28;;;1.75;;
24813;SDS011;12904;50.088;11.414;2022-07-29T14:23:54;3.70;;;2.35;;
24813;SDS011;12904;50.088;11.414;2022-07-29T14:26:20;3.72;;;2.00;;
24813;SDS011;12904;50.088;11.414;2022-07-29T14:28:47;2.03;;;1.77;;
24813;SDS011;12904;50.088;11.414;2022-07-29T14:31:13;2.47;;;2.25;;
24813;SDS011;12904;50.088;11.414;2022-07-29T14:33:39;4.85;;;1.90;;
24813;SDS011;12904;50.088;11.414;2022-07-29T14:36:05;1.90;;;1.58;;
24813;SDS011;12904;50.088;11.414;2022-07-29T14:38:30;2.15;;;1.95;;
24813;SDS011;12904;50.088;11.414;2022-07-29T14:40:56;2.92;;;2.10;;
24813;SDS011;12904;50.088;11.414;2022-07-29T14:43:22;2.72;;;1.88;;
24813;SDS011;12904;50.088;11.414;2022-07-29T14:45:47;2.63;;;2.15;;
24813;SDS011;12904;50.088;11.414;2022-07-29T14:48:13;3.70;;;2.10;;
24813;SDS011;12904;50.088;11.414;2022-07-29T14:50:39;2.50;;;1.92;;
24813;SDS011;12904;50.088;11.414;2022-07-29T14:53:05;2.45;;;2.20;;
24813;SDS011;12904;50.088;11.414;2022-07-29T14:55:30;2.75;;;2.08;;
24813;SDS011;12904;50.088;11.414;2022-07-29T14:57:56;2.97;;;2.10;;
24813;SDS011;12904;50.088;11.414;2022-07-29T15:00:23;2.60;;;2.30;;
24813;SDS011;12904;50.088;11.414;2022-07-29T15:02:49;2.75;;;1.88;;
24813;SDS011;12904;50.088;11.414;2022-07-29T15:05:15;2.80;;;2.10;;
24813;SDS011;12904;50.088;11.414;2022-07-29T15:07:41;2.85;;;1.95;;
24813;SDS011;12904;50.088;11.414;2022-07-29T15:10:06;2.25;;;1.92;;
24813;SDS011;12904;50.088;11.414;2022-07-29T15:12:32;2.55;;;2.00;;
24813;SDS011;12904;50.088;11.414;2022-07-29T15:14:58;2.03;;;1.83;;
24813;SDS011;12904;50.088;11.414;2022-07-29T15:17:24;2.13;;;2.00;;
24813;SDS011;12904;50.088;11.414;2022-07-29T15:19:50;2.40;;;2.20;;
24813;SDS011;12904;50.088;11.414;2022-07-29T15:22:15;2.35;;;2.15;;
24813;SDS011;12904;50.088;11.414;2022-07-29T15:24:42;3.10;;;2.00;;
24813;SDS011;12904;50.088;11.414;2022-07-29T15:27:07;2.55;;;2.28;;
24813;SDS011;12904;50.088;11.414;2022-07-29T15:29:39;2.90;;;2.33;;
24813;SDS011;12904;50.088;11.414;2022-07-29T15:32:08;2.80;;;2.10;;
24813;SDS011;12904;50.088;11.414;2022-07-29T15:34:34;2.53;;;2.10;;
24813;SDS011;12904;50.088;11.414;2022-07-29T15:37:00;2.03;;;1.92;;
24813;SDS011;12904;50.088;11.414;2022-07-29T15:39:26;2.17;;;1.70;;